Havre City County Airport
KHVR : now visible

Airfield :











YOU CAN JOIN US ON...

 
LOGIN :

Register | Disclaimer

   EN    FR    IT 

 









Legend :    VFR   Marginal VFR   IFR   Intensive IFR   Very Intensive IFR
Visi :
Ceiling :
>= 8 km
>= 3000ft
5 to 8 km
1000 to 3000 ft
1500m to 5 km
500 to 1000 ft
800 to 1500m
200 to 500 ft
< 800m
< 200 ft
Symbols :   Thunderstorms  Fog  Heavy snow  Heavy precipitations  Wind > 20 kt






- Airport Elevation : 2591 ft


KHVR - Havre City County

CURRENT METAR :
  • 160953Z AUTO 21004KT 10SM FEW002 M07/M08 A3032 RMK AO2 SLP296 T10671078

EXPIRED METARs :
  • 160932Z AUTO 22006KT 10SM FEW002 M06/M07 A3032 RMK AO2 T10611072
  • 160853Z AUTO 24006KT 10SM CLR M06/M07 A3033 RMK AO2 SLP294 I1001 I3001 T10561067 51007
  • 160823Z AUTO 00000KT 3SM BR FEW002 M04/M05 A3032 RMK AO2 I1001 T10441050
  • 160821Z AUTO 25003KT 1 1/2SM BR FEW002 M03/M04 A3032 RMK AO2 I1001 T10331044
  • 160810Z AUTO 00000KT 3/4SM BR CLR M03/M04 A3032 RMK AO2 I1000 T10331044
  • 160753Z AUTO 00000KT 8SM CLR M03/M04 A3032 RMK AO2 SLP292 T10331039

TAF KHVR
Valid from the 16 at 08:00 until the 17 at 06:00 UTC


160812Z 1608/1706 00000KT 5SM BR SKC
TEMPO 1608/1612 2SM BR
FM161200 00000KT 2SM BR SCT035
FM161600 26008KT P6SM FEW180
FM162000 31008KT P6SM FEW120
KZLC FIR / North America



MET'MAP, your aeronautical weather chart ! - Copyright ORBIFLY December 2007 - Disclaimer

ORBIFLY MET'MAP TEAM :

Programming & Development : Alexandra Zaïnal
Concept & original design : Baudouin d'Aumeries
Assistance for programming : Marc-Olivier Méhu
Technical & hardware support : Manuel Goepfert

Contact : metmap@orbifly.com




SOURCES & CREDITS :

   NOAA       Earth
Advisory